Pagrindinis puslapis
METAR-TAF:

METAR-TAF

Oro uostai :

Clayton, Naujoji Meksika, Jungtinės Amerikos Valstijos

platuma: 36-26-54N, ilguma: 103-09-11W, Aukštis: 1513 m

Dabartinis oras

Ataskaita buvo paskelbta 15 minutes, ne 11:55 UTC
Vėjas 7 kt iš Vakarų/Pietvakarių
Temperatūra 9°C
Drėgmė 61%
Slėgis 1020 hPa
Matomumas: 16.1 km

METAR: KCAO 231155Z AUTO 25007KT 10SM 09/02 A3011 RMK AO2 SLP149 6//// 7//// T00890017 10161 20089

Laikas: 06:10 (12:10 UTC)


TAF: trūkstamas

Orai ataskaitas ir orų prognozės (METAR, TAF).

turimą stotys yra geltonos ir raudonos taškus žemėlapyje.

Perkelti pele per norėdami pamatyti stoties vardą.

Tada spustelėkite, norėdami matyti oro stebėjimo ir prognozės.

Norėdami pakeisti žemėlapį: spustelėkite ant žalios mygtukų su juodo kryžiaus žemyn,; žalią mygtuką su brūkšneliu, jei norite nutolinti; arba žalių rodyklių gretimoms žemėlapius.


METAR-TAF: